Chino Valley, AZ

12:31 AM MST on August 28, 2016 (GMT -0700)
RhodesAZ, Consulting | | Change Station

Elev 4672 ft 34.77 °N, 112.46 °W | Updated 31 seconds ago

Overcast
Overcast
59.9 °F
Feels Like 59.9 °F
N
2.2
Wind Variable Wind from WSW
Gusts 3.1 mph

Today
High -- | Low -- °F
--% Chance of Precip.
Yesterday
High -- | Low -- °F
Precip. -- in
Pressure 30.00 in
Visibility 10.0 miles
Clouds Overcast 9000 ft
Dew Point 56 °F
Humidity 88%
Rainfall 0.00 in
Snow Depth Not available.
6:00 AM 7:00 PM
Waning Crescent, 18% visible
METAR KPRC 280653Z AUTO 21003KT 10SM OVC090 15/11 A3019 RMK AO2 RAB14E32 SLP159 P0000 T01500106 402440128 $
Pressure 30.00 in
Visibility 10.0 miles
Clouds Overcast 9000 ft
Dew Point 56 °F
Humidity 88%
Rainfall 0.00 in
Snow Depth Not available.
6:00 AM 7:00 PM
Waning Crescent, 18% visible
METAR KPRC 280653Z AUTO 21003KT 10SM OVC090 15/11 A3019 RMK AO2 RAB14E32 SLP159 P0000 T01500106 402440128 $

10-Day Weather Forecast

Almanac

Astronomy

Aug. 28, 2016 Rise Set
Actual Time
Civil Twilight
Nautical Twilight
Astronomical Twilight
Moon
Length of Visible Light
Length of Day
Tomorrow will be .
, % of the Moon is Illuminated

Today's Extremes

State Highs State Lows

Community

WunderPhotos

Upload Photos

1,935,533 photos uploaded!

WunderBlog® & News

Nearby

Air Quality

  Air Quality AQ Index Pollutant
Not available.

Snow Depth

Station Depth Elevation

Earthquake Activity

City Distance Mag. Time & Date
Minimum magnitude displayed is 2.5.

Coastal Water Temperatures

Place Temperature

Stations

Nearby Weather Stations

Station Location Temp. Windchill Dew Point Humidity Wind Precip. Elev Updated Type
                   

Watches & Warnings

There are currently no watches in effect.